sensor_id;sensor_type;location;lat;lon;timestamp;P1;durP1;ratioP1;P2;durP2;ratioP2
74957;SDS011;63741;42.624;26.276;2023-04-03T00:00:53;2.63;;;1.33;;
74957;SDS011;63741;42.624;26.276;2023-04-03T00:03:20;3.15;;;1.42;;
74957;SDS011;63741;42.624;26.276;2023-04-03T00:05:47;2.55;;;1.40;;
74957;SDS011;63741;42.624;26.276;2023-04-03T00:08:14;2.45;;;1.23;;
74957;SDS011;63741;42.624;26.276;2023-04-03T00:10:41;3.83;;;1.50;;
74957;SDS011;63741;42.624;26.276;2023-04-03T00:13:09;2.50;;;1.35;;
74957;SDS011;63741;42.624;26.276;2023-04-03T00:15:36;4.50;;;1.40;;
74957;SDS011;63741;42.624;26.276;2023-04-03T00:18:04;4.55;;;2.20;;
74957;SDS011;63741;42.624;26.276;2023-04-03T00:20:31;4.25;;;2.28;;
74957;SDS011;63741;42.624;26.276;2023-04-03T00:22:59;4.25;;;2.30;;
74957;SDS011;63741;42.624;26.276;2023-04-03T00:25:26;4.38;;;2.60;;
74957;SDS011;63741;42.624;26.276;2023-04-03T00:27:54;6.47;;;3.55;;
74957;SDS011;63741;42.624;26.276;2023-04-03T00:30:21;7.25;;;3.10;;
74957;SDS011;63741;42.624;26.276;2023-04-03T00:32:48;7.05;;;3.40;;
74957;SDS011;63741;42.624;26.276;2023-04-03T00:35:16;5.90;;;2.92;;
74957;SDS011;63741;42.624;26.276;2023-04-03T00:37:44;5.95;;;2.90;;
74957;SDS011;63741;42.624;26.276;2023-04-03T00:40:13;6.82;;;2.55;;
74957;SDS011;63741;42.624;26.276;2023-04-03T00:42:42;3.05;;;1.70;;
74957;SDS011;63741;42.624;26.276;2023-04-03T00:47:37;3.70;;;2.13;;
74957;SDS011;63741;42.624;26.276;2023-04-03T00:50:07;3.70;;;1.98;;
74957;SDS011;63741;42.624;26.276;2023-04-03T00:52:34;2.42;;;1.52;;
74957;SDS011;63741;42.624;26.276;2023-04-03T00:55:04;3.17;;;1.60;;
74957;SDS011;63741;42.624;26.276;2023-04-03T00:57:34;2.53;;;1.25;;
74957;SDS011;63741;42.624;26.276;2023-04-03T01:00:04;3.25;;;1.60;;
74957;SDS011;63741;42.624;26.276;2023-04-03T01:02:35;4.15;;;1.70;;
74957;SDS011;63741;42.624;26.276;2023-04-03T01:05:04;2.33;;;1.50;;
74957;SDS011;63741;42.624;26.276;2023-04-03T01:07:31;4.13;;;1.70;;
74957;SDS011;63741;42.624;26.276;2023-04-03T01:10:01;3.22;;;1.38;;
74957;SDS011;63741;42.624;26.276;2023-04-03T01:12:32;3.10;;;1.63;;
74957;SDS011;63741;42.624;26.276;2023-04-03T01:15:04;3.80;;;1.67;;
74957;SDS011;63741;42.624;26.276;2023-04-03T01:17:34;3.83;;;1.77;;
74957;SDS011;63741;42.624;26.276;2023-04-03T01:22:41;3.92;;;1.85;;
74957;SDS011;63741;42.624;26.276;2023-04-03T01:25:18;6.65;;;1.88;;
74957;SDS011;63741;42.624;26.276;2023-04-03T01:27:45;2.90;;;1.70;;
74957;SDS011;63741;42.624;26.276;2023-04-03T01:30:12;4.45;;;1.90;;
74957;SDS011;63741;42.624;26.276;2023-04-03T01:32:43;4.97;;;1.90;;
74957;SDS011;63741;42.624;26.276;2023-04-03T01:35:11;4.20;;;1.88;;
74957;SDS011;63741;42.624;26.276;2023-04-03T01:37:38;5.22;;;1.85;;
74957;SDS011;63741;42.624;26.276;2023-04-03T01:40:06;5.18;;;1.98;;
74957;SDS011;63741;42.624;26.276;2023-04-03T01:42:33;3.13;;;1.67;;
74957;SDS011;63741;42.624;26.276;2023-04-03T01:45:00;6.45;;;2.47;;
74957;SDS011;63741;42.624;26.276;2023-04-03T01:47:27;6.07;;;2.75;;
74957;SDS011;63741;42.624;26.276;2023-04-03T01:49:55;7.55;;;2.85;;
74957;SDS011;63741;42.624;26.276;2023-04-03T01:52:22;6.55;;;2.42;;
74957;SDS011;63741;42.624;26.276;2023-04-03T01:54:50;5.70;;;2.90;;
74957;SDS011;63741;42.624;26.276;2023-04-03T01:57:17;6.40;;;3.08;;
74957;SDS011;63741;42.624;26.276;2023-04-03T01:59:44;6.88;;;2.47;;
74957;SDS011;63741;42.624;26.276;2023-04-03T02:02:11;5.40;;;2.58;;
74957;SDS011;63741;42.624;26.276;2023-04-03T02:04:38;6.55;;;2.97;;
74957;SDS011;63741;42.624;26.276;2023-04-03T02:07:05;4.80;;;2.30;;
74957;SDS011;63741;42.624;26.276;2023-04-03T02:09:33;8.35;;;3.35;;
74957;SDS011;63741;42.624;26.276;2023-04-03T02:12:00;8.13;;;3.38;;
74957;SDS011;63741;42.624;26.276;2023-04-03T02:14:27;7.43;;;3.22;;
74957;SDS011;63741;42.624;26.276;2023-04-03T02:16:54;9.68;;;3.03;;
74957;SDS011;63741;42.624;26.276;2023-04-03T02:19:21;8.65;;;3.70;;
74957;SDS011;63741;42.624;26.276;2023-04-03T02:21:49;6.03;;;3.15;;
74957;SDS011;63741;42.624;26.276;2023-04-03T02:24:16;10.05;;;3.88;;
74957;SDS011;63741;42.624;26.276;2023-04-03T02:26:42;11.18;;;4.13;;
74957;SDS011;63741;42.624;26.276;2023-04-03T02:29:09;7.50;;;3.65;;
74957;SDS011;63741;42.624;26.276;2023-04-03T02:31:36;8.00;;;2.95;;
74957;SDS011;63741;42.624;26.276;2023-04-03T02:34:04;3.85;;;2.17;;
74957;SDS011;63741;42.624;26.276;2023-04-03T02:36:34;5.32;;;2.33;;
74957;SDS011;63741;42.624;26.276;2023-04-03T02:39:04;6.05;;;2.47;;
74957;SDS011;63741;42.624;26.276;2023-04-03T02:41:31;3.53;;;2.00;;
74957;SDS011;63741;42.624;26.276;2023-04-03T02:44:08;3.42;;;1.90;;
74957;SDS011;63741;42.624;26.276;2023-04-03T02:46:36;4.50;;;1.70;;
74957;SDS011;63741;42.624;26.276;2023-04-03T02:49:04;2.63;;;1.40;;
74957;SDS011;63741;42.624;26.276;2023-04-03T02:51:31;3.47;;;1.90;;
74957;SDS011;63741;42.624;26.276;2023-04-03T02:53:58;5.63;;;1.70;;
74957;SDS011;63741;42.624;26.276;2023-04-03T02:56:29;3.53;;;1.63;;
74957;SDS011;63741;42.624;26.276;2023-04-03T02:58:56;3.63;;;1.50;;
74957;SDS011;63741;42.624;26.276;2023-04-03T03:01:24;5.18;;;1.92;;
74957;SDS011;63741;42.624;26.276;2023-04-03T03:03:51;7.07;;;2.47;;
74957;SDS011;63741;42.624;26.276;2023-04-03T03:06:18;8.98;;;3.90;;
74957;SDS011;63741;42.624;26.276;2023-04-03T03:08:45;12.88;;;4.43;;
74957;SDS011;63741;42.624;26.276;2023-04-03T03:11:12;6.65;;;3.67;;
74957;SDS011;63741;42.624;26.276;2023-04-03T03:13:38;59.13;;;32.53;;
74957;SDS011;63741;42.624;26.276;2023-04-03T03:16:05;34.33;;;20.25;;
74957;SDS011;63741;42.624;26.276;2023-04-03T03:18:33;17.67;;;9.20;;
74957;SDS011;63741;42.624;26.276;2023-04-03T03:21:02;15.98;;;6.65;;
74957;SDS011;63741;42.624;26.276;2023-04-03T03:23:30;10.10;;;2.63;;
74957;SDS011;63741;42.624;26.276;2023-04-03T03:25:59;22.63;;;2.80;;
74957;SDS011;63741;42.624;26.276;2023-04-03T03:28:33;9.40;;;2.17;;
74957;SDS011;63741;42.624;26.276;2023-04-03T03:31:01;6.57;;;2.10;;
74957;SDS011;63741;42.624;26.276;2023-04-03T03:33:29;5.70;;;2.22;;
74957;SDS011;63741;42.624;26.276;2023-04-03T03:35:57;4.65;;;2.58;;
74957;SDS011;63741;42.624;26.276;2023-04-03T03:38:24;3.88;;;1.80;;
74957;SDS011;63741;42.624;26.276;2023-04-03T03:40:52;7.68;;;1.98;;
74957;SDS011;63741;42.624;26.276;2023-04-03T03:43:21;2.00;;;1.20;;
74957;SDS011;63741;42.624;26.276;2023-04-03T03:45:50;2.05;;;1.20;;
74957;SDS011;63741;42.624;26.276;2023-04-03T03:48:19;7.45;;;2.60;;
74957;SDS011;63741;42.624;26.276;2023-04-03T03:50:47;5.43;;;2.00;;
74957;SDS011;63741;42.624;26.276;2023-04-03T03:53:16;6.13;;;1.80;;
74957;SDS011;63741;42.624;26.276;2023-04-03T03:55:43;10.23;;;1.65;;
74957;SDS011;63741;42.624;26.276;2023-04-03T03:58:10;3.90;;;1.20;;
74957;SDS011;63741;42.624;26.276;2023-04-03T04:00:37;3.08;;;1.05;;
74957;SDS011;63741;42.624;26.276;2023-04-03T04:03:04;2.35;;;1.35;;
74957;SDS011;63741;42.624;26.276;2023-04-03T04:05:32;5.50;;;1.70;;
74957;SDS011;63741;42.624;26.276;2023-04-03T04:08:00;5.45;;;1.95;;
74957;SDS011;63741;42.624;26.276;2023-04-03T04:10:27;4.93;;;2.67;;
74957;SDS011;63741;42.624;26.276;2023-04-03T04:12:55;6.68;;;3.40;;
74957;SDS011;63741;42.624;26.276;2023-04-03T04:15:26;9.30;;;4.57;;
74957;SDS011;63741;42.624;26.276;2023-04-03T04:17:54;15.60;;;4.22;;
74957;SDS011;63741;42.624;26.276;2023-04-03T04:20:21;14.80;;;3.90;;
74957;SDS011;63741;42.624;26.276;2023-04-03T04:22:49;14.38;;;4.15;;
74957;SDS011;63741;42.624;26.276;2023-04-03T04:25:18;9.68;;;3.97;;
74957;SDS011;63741;42.624;26.276;2023-04-03T04:27:45;36.78;;;7.13;;
74957;SDS011;63741;42.624;26.276;2023-04-03T04:30:14;15.20;;;4.50;;
74957;SDS011;63741;42.624;26.276;2023-04-03T04:32:43;9.70;;;2.88;;
74957;SDS011;63741;42.624;26.276;2023-04-03T04:35:10;13.73;;;2.65;;
74957;SDS011;63741;42.624;26.276;2023-04-03T04:37:42;12.93;;;2.38;;
74957;SDS011;63741;42.624;26.276;2023-04-03T04:40:10;16.80;;;3.08;;
74957;SDS011;63741;42.624;26.276;2023-04-03T04:42:38;6.07;;;1.85;;
74957;SDS011;63741;42.624;26.276;2023-04-03T04:45:06;4.38;;;1.80;;
74957;SDS011;63741;42.624;26.276;2023-04-03T04:47:35;14.70;;;2.40;;
74957;SDS011;63741;42.624;26.276;2023-04-03T04:50:03;7.15;;;2.30;;
74957;SDS011;63741;42.624;26.276;2023-04-03T04:52:31;7.20;;;1.80;;
74957;SDS011;63741;42.624;26.276;2023-04-03T04:54:58;13.50;;;2.20;;
74957;SDS011;63741;42.624;26.276;2023-04-03T04:57:26;7.68;;;2.40;;
74957;SDS011;63741;42.624;26.276;2023-04-03T04:59:55;2.88;;;1.52;;
74957;SDS011;63741;42.624;26.276;2023-04-03T05:02:22;9.20;;;1.60;;
74957;SDS011;63741;42.624;26.276;2023-04-03T05:04:49;5.15;;;1.60;;
74957;SDS011;63741;42.624;26.276;2023-04-03T05:07:22;7.45;;;1.90;;
74957;SDS011;63741;42.624;26.276;2023-04-03T05:09:49;12.05;;;2.53;;
74957;SDS011;63741;42.624;26.276;2023-04-03T05:12:17;14.55;;;3.83;;
74957;SDS011;63741;42.624;26.276;2023-04-03T05:14:50;6.65;;;2.35;;
74957;SDS011;63741;42.624;26.276;2023-04-03T05:17:17;7.32;;;2.20;;
74957;SDS011;63741;42.624;26.276;2023-04-03T05:19:49;13.45;;;2.30;;
74957;SDS011;63741;42.624;26.276;2023-04-03T05:22:19;6.70;;;1.75;;
74957;SDS011;63741;42.624;26.276;2023-04-03T05:24:46;6.28;;;1.30;;
74957;SDS011;63741;42.624;26.276;2023-04-03T05:27:13;3.72;;;1.50;;
74957;SDS011;63741;42.624;26.276;2023-04-03T05:29:44;2.33;;;1.27;;
74957;SDS011;63741;42.624;26.276;2023-04-03T05:34:46;7.20;;;1.95;;
74957;SDS011;63741;42.624;26.276;2023-04-03T05:37:13;4.20;;;1.40;;
74957;SDS011;63741;42.624;26.276;2023-04-03T05:39:41;2.70;;;1.60;;
74957;SDS011;63741;42.624;26.276;2023-04-03T05:42:09;3.45;;;1.67;;
74957;SDS011;63741;42.624;26.276;2023-04-03T05:44:38;5.20;;;1.60;;
74957;SDS011;63741;42.624;26.276;2023-04-03T05:47:05;6.43;;;1.80;;
74957;SDS011;63741;42.624;26.276;2023-04-03T05:49:32;30.17;;;7.32;;
74957;SDS011;63741;42.624;26.276;2023-04-03T05:51:59;13.63;;;4.53;;
74957;SDS011;63741;42.624;26.276;2023-04-03T05:54:29;11.55;;;3.17;;
74957;SDS011;63741;42.624;26.276;2023-04-03T05:57:04;14.10;;;4.70;;
74957;SDS011;63741;42.624;26.276;2023-04-03T05:59:31;14.32;;;3.78;;
74957;SDS011;63741;42.624;26.276;2023-04-03T06:01:59;11.77;;;3.50;;
74957;SDS011;63741;42.624;26.276;2023-04-03T06:04:27;21.33;;;7.82;;
74957;SDS011;63741;42.624;26.276;2023-04-03T06:06:56;25.73;;;5.90;;
74957;SDS011;63741;42.624;26.276;2023-04-03T06:09:26;13.45;;;5.65;;
74957;SDS011;63741;42.624;26.276;2023-04-03T06:11:55;13.77;;;5.40;;
74957;SDS011;63741;42.624;26.276;2023-04-03T06:14:26;33.58;;;8.88;;
74957;SDS011;63741;42.624;26.276;2023-04-03T06:16:53;39.25;;;7.97;;
74957;SDS011;63741;42.624;26.276;2023-04-03T06:19:21;16.95;;;3.38;;
74957;SDS011;63741;42.624;26.276;2023-04-03T06:21:53;13.95;;;2.92;;
74957;SDS011;63741;42.624;26.276;2023-04-03T06:24:20;9.55;;;3.85;;
74957;SDS011;63741;42.624;26.276;2023-04-03T06:26:49;14.38;;;7.10;;
74957;SDS011;63741;42.624;26.276;2023-04-03T06:29:18;6.90;;;3.83;;
74957;SDS011;63741;42.624;26.276;2023-04-03T06:31:45;6.95;;;3.38;;
74957;SDS011;63741;42.624;26.276;2023-04-03T06:34:13;6.38;;;3.10;;
74957;SDS011;63741;42.624;26.276;2023-04-03T06:36:40;8.05;;;3.47;;
74957;SDS011;63741;42.624;26.276;2023-04-03T06:43:40;7.93;;;3.70;;
74957;SDS011;63741;42.624;26.276;2023-04-03T06:46:10;9.20;;;3.47;;
74957;SDS011;63741;42.624;26.276;2023-04-03T06:48:40;5.72;;;3.20;;
74957;SDS011;63741;42.624;26.276;2023-04-03T06:51:12;8.90;;;2.95;;
74957;SDS011;63741;42.624;26.276;2023-04-03T06:53:49;18.38;;;3.53;;
74957;SDS011;63741;42.624;26.276;2023-04-03T06:56:17;9.23;;;3.00;;
74957;SDS011;63741;42.624;26.276;2023-04-03T06:58:45;10.10;;;2.97;;
74957;SDS011;63741;42.624;26.276;2023-04-03T07:01:14;6.20;;;2.70;;
74957;SDS011;63741;42.624;26.276;2023-04-03T07:03:43;45.88;;;11.48;;
74957;SDS011;63741;42.624;26.276;2023-04-03T07:06:11;32.63;;;9.77;;
74957;SDS011;63741;42.624;26.276;2023-04-03T07:08:39;11.25;;;3.72;;
74957;SDS011;63741;42.624;26.276;2023-04-03T07:11:06;8.85;;;2.83;;
74957;SDS011;63741;42.624;26.276;2023-04-03T07:13:34;16.08;;;4.57;;
74957;SDS011;63741;42.624;26.276;2023-04-03T07:16:01;31.48;;;7.25;;
74957;SDS011;63741;42.624;26.276;2023-04-03T07:18:30;23.80;;;6.32;;
74957;SDS011;63741;42.624;26.276;2023-04-03T07:20:57;8.30;;;3.33;;
74957;SDS011;63741;42.624;26.276;2023-04-03T07:23:24;20.20;;;6.70;;
74957;SDS011;63741;42.624;26.276;2023-04-03T07:25:51;8.98;;;4.28;;
74957;SDS011;63741;42.624;26.276;2023-04-03T07:28:19;24.08;;;5.85;;
74957;SDS011;63741;42.624;26.276;2023-04-03T07:30:48;20.40;;;6.30;;
74957;SDS011;63741;42.624;26.276;2023-04-03T07:33:20;53.72;;;5.95;;
74957;SDS011;63741;42.624;26.276;2023-04-03T07:35:54;20.95;;;4.78;;
74957;SDS011;63741;42.624;26.276;2023-04-03T07:38:21;7.88;;;3.17;;
74957;SDS011;63741;42.624;26.276;2023-04-03T07:40:49;6.93;;;3.70;;
74957;SDS011;63741;42.624;26.276;2023-04-03T07:43:19;5.88;;;3.30;;
74957;SDS011;63741;42.624;26.276;2023-04-03T07:45:47;9.95;;;3.22;;
74957;SDS011;63741;42.624;26.276;2023-04-03T07:48:17;5.85;;;2.80;;
74957;SDS011;63741;42.624;26.276;2023-04-03T07:50:46;8.43;;;2.88;;
74957;SDS011;63741;42.624;26.276;2023-04-03T07:53:31;4.30;;;2.28;;
74957;SDS011;63741;42.624;26.276;2023-04-03T07:56:13;9.20;;;2.10;;
74957;SDS011;63741;42.624;26.276;2023-04-03T07:58:42;4.32;;;1.90;;
74957;SDS011;63741;42.624;26.276;2023-04-03T08:01:09;3.40;;;1.80;;
74957;SDS011;63741;42.624;26.276;2023-04-03T08:03:37;7.72;;;1.58;;
74957;SDS011;63741;42.624;26.276;2023-04-03T08:06:06;7.72;;;2.20;;
74957;SDS011;63741;42.624;26.276;2023-04-03T08:08:41;4.20;;;1.77;;
74957;SDS011;63741;42.624;26.276;2023-04-03T08:11:09;7.95;;;2.08;;
74957;SDS011;63741;42.624;26.276;2023-04-03T08:13:37;3.20;;;2.13;;
74957;SDS011;63741;42.624;26.276;2023-04-03T08:16:15;4.00;;;2.80;;
74957;SDS011;63741;42.624;26.276;2023-04-03T08:18:44;3.90;;;2.50;;
74957;SDS011;63741;42.624;26.276;2023-04-03T08:21:14;7.43;;;2.53;;
74957;SDS011;63741;42.624;26.276;2023-04-03T08:23:41;4.55;;;2.28;;
74957;SDS011;63741;42.624;26.276;2023-04-03T08:26:09;5.75;;;2.58;;
74957;SDS011;63741;42.624;26.276;2023-04-03T08:28:37;6.07;;;2.20;;
74957;SDS011;63741;42.624;26.276;2023-04-03T08:31:05;6.90;;;2.28;;
74957;SDS011;63741;42.624;26.276;2023-04-03T08:33:34;5.80;;;2.38;;
74957;SDS011;63741;42.624;26.276;2023-04-03T08:36:03;6.15;;;2.70;;
74957;SDS011;63741;42.624;26.276;2023-04-03T08:38:32;17.20;;;9.07;;
74957;SDS011;63741;42.624;26.276;2023-04-03T08:49:50;10.80;;;4.53;;
74957;SDS011;63741;42.624;26.276;2023-04-03T08:52:26;14.38;;;7.32;;
74957;SDS011;63741;42.624;26.276;2023-04-03T08:55:03;13.93;;;8.10;;
74957;SDS011;63741;42.624;26.276;2023-04-03T08:57:34;13.95;;;6.45;;
74957;SDS011;63741;42.624;26.276;2023-04-03T09:02:35;9.10;;;5.03;;
74957;SDS011;63741;42.624;26.276;2023-04-03T09:05:39;10.32;;;3.88;;
74957;SDS011;63741;42.624;26.276;2023-04-03T09:10:38;5.55;;;2.72;;
74957;SDS011;63741;42.624;26.276;2023-04-03T09:15:37;12.45;;;2.70;;
74957;SDS011;63741;42.624;26.276;2023-04-03T09:18:27;10.55;;;2.70;;
74957;SDS011;63741;42.624;26.276;2023-04-03T09:21:07;9.30;;;3.03;;
74957;SDS011;63741;42.624;26.276;2023-04-03T09:23:53;3.38;;;1.45;;
74957;SDS011;63741;42.624;26.276;2023-04-03T09:26:25;7.60;;;2.35;;
74957;SDS011;63741;42.624;26.276;2023-04-03T09:28:58;4.70;;;1.63;;
74957;SDS011;63741;42.624;26.276;2023-04-03T09:31:38;5.95;;;2.00;;
74957;SDS011;63741;42.624;26.276;2023-04-03T09:36:43;2.53;;;1.30;;
74957;SDS011;63741;42.624;26.276;2023-04-03T09:39:22;3.83;;;1.38;;
74957;SDS011;63741;42.624;26.276;2023-04-03T09:41:59;3.05;;;1.50;;
74957;SDS011;63741;42.624;26.276;2023-04-03T09:44:30;3.58;;;1.63;;
74957;SDS011;63741;42.624;26.276;2023-04-03T09:46:59;6.05;;;1.90;;
74957;SDS011;63741;42.624;26.276;2023-04-03T09:52:26;8.52;;;2.13;;
74957;SDS011;63741;42.624;26.276;2023-04-03T09:54:53;3.78;;;1.67;;
74957;SDS011;63741;42.624;26.276;2023-04-03T09:57:20;4.03;;;1.85;;
74957;SDS011;63741;42.624;26.276;2023-04-03T09:59:47;4.63;;;2.00;;
74957;SDS011;63741;42.624;26.276;2023-04-03T10:02:37;4.63;;;1.73;;
74957;SDS011;63741;42.624;26.276;2023-04-03T10:08:06;3.80;;;1.60;;
74957;SDS011;63741;42.624;26.276;2023-04-03T10:10:35;5.40;;;3.63;;
74957;SDS011;63741;42.624;26.276;2023-04-03T10:13:09;3.35;;;1.48;;
74957;SDS011;63741;42.624;26.276;2023-04-03T10:24:23;4.10;;;1.00;;
74957;SDS011;63741;42.624;26.276;2023-04-03T10:27:00;2.85;;;1.17;;
74957;SDS011;63741;42.624;26.276;2023-04-03T10:30:00;1.85;;;0.85;;
74957;SDS011;63741;42.624;26.276;2023-04-03T10:35:45;4.75;;;0.88;;
74957;SDS011;63741;42.624;26.276;2023-04-03T10:41:12;1.95;;;0.70;;
74957;SDS011;63741;42.624;26.276;2023-04-03T10:43:44;1.52;;;0.80;;
74957;SDS011;63741;42.624;26.276;2023-04-03T10:55:55;3.53;;;1.10;;
74957;SDS011;63741;42.624;26.276;2023-04-03T11:01:13;3.47;;;0.80;;
74957;SDS011;63741;42.624;26.276;2023-04-03T11:03:47;1.98;;;0.70;;
74957;SDS011;63741;42.624;26.276;2023-04-03T11:06:19;1.40;;;0.70;;
74957;SDS011;63741;42.624;26.276;2023-04-03T11:11:22;1.70;;;0.70;;
74957;SDS011;63741;42.624;26.276;2023-04-03T11:16:33;1.48;;;0.60;;
74957;SDS011;63741;42.624;26.276;2023-04-03T11:19:20;2.42;;;0.60;;
74957;SDS011;63741;42.624;26.276;2023-04-03T11:21:54;1.40;;;0.65;;
74957;SDS011;63741;42.624;26.276;2023-04-03T11:24:29;1.33;;;0.70;;
74957;SDS011;63741;42.624;26.276;2023-04-03T11:26:59;1.20;;;0.55;;
74957;SDS011;63741;42.624;26.276;2023-04-03T11:29:32;1.27;;;0.50;;
74957;SDS011;63741;42.624;26.276;2023-04-03T11:35:22;1.98;;;0.90;;
74957;SDS011;63741;42.624;26.276;2023-04-03T11:37:52;1.85;;;0.77;;
74957;SDS011;63741;42.624;26.276;2023-04-03T11:40:21;3.35;;;0.65;;
74957;SDS011;63741;42.624;26.276;2023-04-03T11:43:03;2.95;;;0.70;;
74957;SDS011;63741;42.624;26.276;2023-04-03T11:45:35;1.67;;;0.90;;
74957;SDS011;63741;42.624;26.276;2023-04-03T11:48:09;4.75;;;0.70;;
74957;SDS011;63741;42.624;26.276;2023-04-03T11:50:56;2.88;;;0.70;;
74957;SDS011;63741;42.624;26.276;2023-04-03T11:53:31;3.83;;;1.05;;
74957;SDS011;63741;42.624;26.276;2023-04-03T12:04:12;2.50;;;0.90;;
74957;SDS011;63741;42.624;26.276;2023-04-03T12:21:12;4.32;;;0.85;;
74957;SDS011;63741;42.624;26.276;2023-04-03T12:48:31;4.13;;;1.45;;
74957;SDS011;63741;42.624;26.276;2023-04-03T12:51:05;2.20;;;1.05;;
74957;SDS011;63741;42.624;26.276;2023-04-03T12:53:33;3.05;;;1.10;;
74957;SDS011;63741;42.624;26.276;2023-04-03T12:56:24;2.58;;;0.70;;
74957;SDS011;63741;42.624;26.276;2023-04-03T12:59:19;5.35;;;0.98;;
74957;SDS011;63741;42.624;26.276;2023-04-03T13:01:56;2.35;;;0.80;;
74957;SDS011;63741;42.624;26.276;2023-04-03T13:04:24;1.45;;;0.75;;
74957;SDS011;63741;42.624;26.276;2023-04-03T13:06:53;3.10;;;1.00;;
74957;SDS011;63741;42.624;26.276;2023-04-03T13:09:21;11.82;;;5.10;;
74957;SDS011;63741;42.624;26.276;2023-04-03T13:11:53;2.60;;;1.20;;
74957;SDS011;63741;42.624;26.276;2023-04-03T13:14:24;4.53;;;2.05;;
74957;SDS011;63741;42.624;26.276;2023-04-03T13:17:10;2.78;;;1.20;;
74957;SDS011;63741;42.624;26.276;2023-04-03T13:19:40;3.53;;;1.48;;
74957;SDS011;63741;42.624;26.276;2023-04-03T13:22:11;2.78;;;1.65;;
74957;SDS011;63741;42.624;26.276;2023-04-03T13:25:07;7.07;;;4.22;;
74957;SDS011;63741;42.624;26.276;2023-04-03T13:27:37;4.95;;;2.50;;
74957;SDS011;63741;42.624;26.276;2023-04-03T13:30:06;3.00;;;2.00;;
74957;SDS011;63741;42.624;26.276;2023-04-03T13:32:46;2.15;;;1.60;;
74957;SDS011;63741;42.624;26.276;2023-04-03T13:35:30;2.85;;;1.40;;
74957;SDS011;63741;42.624;26.276;2023-04-03T13:38:03;3.75;;;1.67;;
74957;SDS011;63741;42.624;26.276;2023-04-03T13:40:53;3.05;;;1.30;;
74957;SDS011;63741;42.624;26.276;2023-04-03T13:43:26;5.13;;;1.50;;
74957;SDS011;63741;42.624;26.276;2023-04-03T13:46:00;4.15;;;1.60;;
74957;SDS011;63741;42.624;26.276;2023-04-03T13:51:12;3.83;;;1.70;;
74957;SDS011;63741;42.624;26.276;2023-04-03T13:53:50;6.07;;;1.60;;
74957;SDS011;63741;42.624;26.276;2023-04-03T13:59:00;8.07;;;1.73;;
74957;SDS011;63741;42.624;26.276;2023-04-03T14:01:34;10.07;;;2.30;;
74957;SDS011;63741;42.624;26.276;2023-04-03T14:04:14;9.75;;;3.70;;
74957;SDS011;63741;42.624;26.276;2023-04-03T14:06:46;12.40;;;5.13;;
74957;SDS011;63741;42.624;26.276;2023-04-03T14:09:15;10.40;;;5.03;;
74957;SDS011;63741;42.624;26.276;2023-04-03T14:11:43;7.60;;;2.95;;
74957;SDS011;63741;42.624;26.276;2023-04-03T14:14:13;5.95;;;2.38;;
74957;SDS011;63741;42.624;26.276;2023-04-03T14:16:47;5.97;;;2.58;;
74957;SDS011;63741;42.624;26.276;2023-04-03T14:19:25;4.57;;;2.20;;
74957;SDS011;63741;42.624;26.276;2023-04-03T14:21:54;4.18;;;2.58;;
74957;SDS011;63741;42.624;26.276;2023-04-03T14:24:23;5.63;;;2.03;;
74957;SDS011;63741;42.624;26.276;2023-04-03T14:26:51;2.97;;;2.03;;
74957;SDS011;63741;42.624;26.276;2023-04-03T14:29:20;5.45;;;2.55;;
74957;SDS011;63741;42.624;26.276;2023-04-03T14:31:48;2.78;;;1.83;;
74957;SDS011;63741;42.624;26.276;2023-04-03T14:36:52;8.85;;;6.63;;
74957;SDS011;63741;42.624;26.276;2023-04-03T14:39:19;5.28;;;4.78;;
74957;SDS011;63741;42.624;26.276;2023-04-03T14:41:46;9.77;;;5.60;;
74957;SDS011;63741;42.624;26.276;2023-04-03T14:44:13;9.07;;;5.05;;
74957;SDS011;63741;42.624;26.276;2023-04-03T14:46:41;5.57;;;2.85;;
74957;SDS011;63741;42.624;26.276;2023-04-03T14:49:24;6.55;;;3.10;;
74957;SDS011;63741;42.624;26.276;2023-04-03T14:51:56;6.63;;;4.30;;
74957;SDS011;63741;42.624;26.276;2023-04-03T14:54:23;8.40;;;5.55;;
74957;SDS011;63741;42.624;26.276;2023-04-03T14:56:55;10.10;;;6.25;;
74957;SDS011;63741;42.624;26.276;2023-04-03T14:59:24;19.52;;;10.60;;
74957;SDS011;63741;42.624;26.276;2023-04-03T15:01:51;9.13;;;6.38;;
74957;SDS011;63741;42.624;26.276;2023-04-03T15:04:19;11.82;;;6.93;;
74957;SDS011;63741;42.624;26.276;2023-04-03T15:06:47;12.93;;;9.68;;
74957;SDS011;63741;42.624;26.276;2023-04-03T15:09:34;10.52;;;6.45;;
74957;SDS011;63741;42.624;26.276;2023-04-03T15:12:02;9.50;;;6.60;;
74957;SDS011;63741;42.624;26.276;2023-04-03T15:14:29;10.10;;;6.43;;
74957;SDS011;63741;42.624;26.276;2023-04-03T15:17:10;11.02;;;5.95;;
74957;SDS011;63741;42.624;26.276;2023-04-03T15:19:42;11.02;;;6.05;;
74957;SDS011;63741;42.624;26.276;2023-04-03T15:22:16;11.80;;;7.35;;
74957;SDS011;63741;42.624;26.276;2023-04-03T15:24:44;13.55;;;8.50;;
74957;SDS011;63741;42.624;26.276;2023-04-03T15:27:13;32.10;;;16.80;;
74957;SDS011;63741;42.624;26.276;2023-04-03T15:29:42;13.18;;;6.95;;
74957;SDS011;63741;42.624;26.276;2023-04-03T15:32:09;20.23;;;11.27;;
74957;SDS011;63741;42.624;26.276;2023-04-03T15:34:38;12.00;;;7.82;;
74957;SDS011;63741;42.624;26.276;2023-04-03T15:37:06;16.02;;;9.18;;
74957;SDS011;63741;42.624;26.276;2023-04-03T15:39:32;15.55;;;9.73;;
74957;SDS011;63741;42.624;26.276;2023-04-03T15:41:59;12.68;;;8.32;;
74957;SDS011;63741;42.624;26.276;2023-04-03T15:44:33;12.70;;;7.47;;
74957;SDS011;63741;42.624;26.276;2023-04-03T15:47:01;11.20;;;7.57;;
74957;SDS011;63741;42.624;26.276;2023-04-03T15:49:29;13.48;;;8.90;;
74957;SDS011;63741;42.624;26.276;2023-04-03T15:51:57;13.23;;;7.72;;
74957;SDS011;63741;42.624;26.276;2023-04-03T15:54:24;9.40;;;6.35;;
74957;SDS011;63741;42.624;26.276;2023-04-03T15:56:52;14.60;;;9.75;;
74957;SDS011;63741;42.624;26.276;2023-04-03T15:59:20;14.18;;;8.35;;
74957;SDS011;63741;42.624;26.276;2023-04-03T16:01:47;15.05;;;9.07;;
74957;SDS011;63741;42.624;26.276;2023-04-03T16:04:15;10.60;;;7.25;;
74957;SDS011;63741;42.624;26.276;2023-04-03T16:06:44;11.32;;;7.63;;
74957;SDS011;63741;42.624;26.276;2023-04-03T16:09:11;11.45;;;7.20;;
74957;SDS011;63741;42.624;26.276;2023-04-03T16:11:38;11.90;;;7.72;;
74957;SDS011;63741;42.624;26.276;2023-04-03T16:14:06;16.75;;;10.82;;
74957;SDS011;63741;42.624;26.276;2023-04-03T16:16:34;12.18;;;8.48;;
74957;SDS011;63741;42.624;26.276;2023-04-03T16:19:02;10.48;;;7.18;;
74957;SDS011;63741;42.624;26.276;2023-04-03T16:21:29;10.48;;;6.82;;
74957;SDS011;63741;42.624;26.276;2023-04-03T16:23:58;9.40;;;6.25;;
74957;SDS011;63741;42.624;26.276;2023-04-03T16:26:31;12.25;;;7.05;;
74957;SDS011;63741;42.624;26.276;2023-04-03T16:29:05;11.85;;;6.80;;
74957;SDS011;63741;42.624;26.276;2023-04-03T16:31:32;12.55;;;8.13;;
74957;SDS011;63741;42.624;26.276;2023-04-03T16:34:00;12.88;;;7.35;;
74957;SDS011;63741;42.624;26.276;2023-04-03T16:36:27;10.73;;;6.78;;
74957;SDS011;63741;42.624;26.276;2023-04-03T16:38:54;13.95;;;8.60;;
74957;SDS011;63741;42.624;26.276;2023-04-03T16:41:21;14.48;;;8.30;;
74957;SDS011;63741;42.624;26.276;2023-04-03T16:43:48;14.80;;;9.00;;
74957;SDS011;63741;42.624;26.276;2023-04-03T16:46:17;12.05;;;8.50;;
74957;SDS011;63741;42.624;26.276;2023-04-03T16:48:43;17.00;;;9.45;;
74957;SDS011;63741;42.624;26.276;2023-04-03T16:51:11;10.70;;;6.90;;
74957;SDS011;63741;42.624;26.276;2023-04-03T16:53:39;13.75;;;7.80;;
74957;SDS011;63741;42.624;26.276;2023-04-03T16:56:06;13.55;;;8.88;;